sensor_id;sensor_type;location;lat;lon;timestamp;noise_LAeq;noise_LA_min;noise_LA_max;noise_LA01;noise_LA95
73638;Laerm;53743;51.100;5.874;2023-08-21T00:00:01;35.87;29.82;59.98;;
73638;Laerm;53743;51.100;5.874;2023-08-21T00:01:06;32.68;29.10;52.82;;
73638;Laerm;53743;51.100;5.874;2023-08-21T00:02:07;31.23;29.42;42.18;;
73638;Laerm;53743;51.100;5.874;2023-08-21T00:03:09;31.36;29.30;36.03;;
73638;Laerm;53743;51.100;5.874;2023-08-21T00:04:10;31.07;29.04;34.78;;
73638;Laerm;53743;51.100;5.874;2023-08-21T00:05:12;31.26;28.92;36.65;;
73638;Laerm;53743;51.100;5.874;2023-08-21T00:06:13;57.49;29.98;73.28;;
73638;Laerm;53743;51.100;5.874;2023-08-21T00:07:15;56.18;30.30;72.00;;
73638;Laerm;53743;51.100;5.874;2023-08-21T00:08:16;58.60;29.01;74.53;;
73638;Laerm;53743;51.100;5.874;2023-08-21T00:09:18;31.34;29.06;34.69;;
73638;Laerm;53743;51.100;5.874;2023-08-21T00:10:19;31.43;29.40;33.74;;
73638;Laerm;53743;51.100;5.874;2023-08-21T00:11:21;55.29;30.16;69.92;;
73638;Laerm;53743;51.100;5.874;2023-08-21T00:12:23;59.66;29.83;75.35;;
73638;Laerm;53743;51.100;5.874;2023-08-21T00:13:25;31.36;29.50;33.61;;
73638;Laerm;53743;51.100;5.874;2023-08-21T00:14:26;31.06;29.41;34.71;;
73638;Laerm;53743;51.100;5.874;2023-08-21T00:15:28;31.41;29.56;35.28;;
73638;Laerm;53743;51.100;5.874;2023-08-21T00:16:31;32.15;29.50;39.14;;
73638;Laerm;53743;51.100;5.874;2023-08-21T00:17:33;30.85;28.88;34.36;;
73638;Laerm;53743;51.100;5.874;2023-08-21T00:18:34;49.32;29.08;66.24;;
73638;Laerm;53743;51.100;5.874;2023-08-21T00:19:36;51.11;29.30;68.36;;
73638;Laerm;53743;51.100;5.874;2023-08-21T00:20:38;30.96;29.25;33.55;;
73638;Laerm;53743;51.100;5.874;2023-08-21T00:21:42;54.14;29.12;69.76;;
73638;Laerm;53743;51.100;5.874;2023-08-21T00:22:43;56.24;28.81;70.89;;
73638;Laerm;53743;51.100;5.874;2023-08-21T00:23:45;41.00;29.38;55.82;;
73638;Laerm;53743;51.100;5.874;2023-08-21T00:24:47;31.38;29.23;34.99;;
73638;Laerm;53743;51.100;5.874;2023-08-21T00:25:49;31.20;29.57;37.18;;
73638;Laerm;53743;51.100;5.874;2023-08-21T00:26:50;30.76;29.07;33.84;;
73638;Laerm;53743;51.100;5.874;2023-08-21T00:27:52;30.49;28.83;34.07;;
73638;Laerm;53743;51.100;5.874;2023-08-21T00:28:53;30.80;28.81;32.65;;
73638;Laerm;53743;51.100;5.874;2023-08-21T00:29:55;31.07;28.96;45.10;;
73638;Laerm;53743;51.100;5.874;2023-08-21T00:31:01;31.17;29.00;36.05;;
73638;Laerm;53743;51.100;5.874;2023-08-21T00:32:05;31.02;28.97;34.94;;
73638;Laerm;53743;51.100;5.874;2023-08-21T00:33:07;30.65;28.95;32.70;;
73638;Laerm;53743;51.100;5.874;2023-08-21T00:34:09;58.56;29.08;76.03;;
73638;Laerm;53743;51.100;5.874;2023-08-21T00:35:10;37.85;28.89;52.45;;
73638;Laerm;53743;51.100;5.874;2023-08-21T00:36:12;30.40;27.96;35.75;;
73638;Laerm;53743;51.100;5.874;2023-08-21T00:37:13;30.20;28.66;34.56;;
73638;Laerm;53743;51.100;5.874;2023-08-21T00:38:15;30.14;28.28;44.85;;
73638;Laerm;53743;51.100;5.874;2023-08-21T00:39:17;30.21;28.37;34.02;;
73638;Laerm;53743;51.100;5.874;2023-08-21T00:40:19;30.40;28.58;36.24;;
73638;Laerm;53743;51.100;5.874;2023-08-21T00:41:20;30.65;28.88;33.46;;
73638;Laerm;53743;51.100;5.874;2023-08-21T00:42:22;31.51;28.64;39.03;;
73638;Laerm;53743;51.100;5.874;2023-08-21T00:43:23;53.73;28.65;69.96;;
73638;Laerm;53743;51.100;5.874;2023-08-21T00:44:25;30.72;28.81;36.64;;
73638;Laerm;53743;51.100;5.874;2023-08-21T00:45:26;60.48;29.10;77.34;;
73638;Laerm;53743;51.100;5.874;2023-08-21T00:46:29;30.45;28.63;34.72;;
73638;Laerm;53743;51.100;5.874;2023-08-21T00:47:32;30.86;29.01;33.74;;
73638;Laerm;53743;51.100;5.874;2023-08-21T00:48:34;30.92;28.91;45.64;;
73638;Laerm;53743;51.100;5.874;2023-08-21T00:49:36;53.37;29.90;67.78;;
73638;Laerm;53743;51.100;5.874;2023-08-21T00:50:40;56.71;29.64;72.27;;
73638;Laerm;53743;51.100;5.874;2023-08-21T00:51:42;31.04;28.79;35.16;;
73638;Laerm;53743;51.100;5.874;2023-08-21T00:52:46;30.48;28.78;33.73;;
73638;Laerm;53743;51.100;5.874;2023-08-21T00:53:48;30.86;29.00;33.76;;
73638;Laerm;53743;51.100;5.874;2023-08-21T00:54:51;30.98;29.30;33.32;;
73638;Laerm;53743;51.100;5.874;2023-08-21T00:55:53;31.03;29.13;34.20;;
73638;Laerm;53743;51.100;5.874;2023-08-21T00:56:55;30.81;28.89;36.75;;
73638;Laerm;53743;51.100;5.874;2023-08-21T00:57:56;30.56;28.74;35.36;;
73638;Laerm;53743;51.100;5.874;2023-08-21T00:58:59;30.71;28.91;33.58;;
73638;Laerm;53743;51.100;5.874;2023-08-21T01:00:02;30.75;28.90;44.98;;
73638;Laerm;53743;51.100;5.874;2023-08-21T01:01:05;31.07;29.00;37.43;;
73638;Laerm;53743;51.100;5.874;2023-08-21T01:02:06;30.84;28.74;33.19;;
73638;Laerm;53743;51.100;5.874;2023-08-21T01:04:24;30.83;28.83;34.89;;
73638;Laerm;53743;51.100;5.874;2023-08-21T01:05:26;30.82;28.95;33.90;;
73638;Laerm;53743;51.100;5.874;2023-08-21T01:06:27;30.75;28.78;37.67;;
73638;Laerm;53743;51.100;5.874;2023-08-21T01:07:30;30.93;29.14;34.92;;
73638;Laerm;53743;51.100;5.874;2023-08-21T01:08:42;30.97;29.12;34.05;;
73638;Laerm;53743;51.100;5.874;2023-08-21T01:10:00;31.11;29.18;39.89;;
73638;Laerm;53743;51.100;5.874;2023-08-21T01:11:15;57.68;29.31;73.89;;
73638;Laerm;53743;51.100;5.874;2023-08-21T01:12:29;32.19;28.91;41.71;;
73638;Laerm;53743;51.100;5.874;2023-08-21T01:13:48;31.19;28.81;34.25;;
73638;Laerm;53743;51.100;5.874;2023-08-21T01:15:00;30.90;28.72;38.21;;
73638;Laerm;53743;51.100;5.874;2023-08-21T01:16:07;30.61;28.41;36.38;;
73638;Laerm;53743;51.100;5.874;2023-08-21T01:17:12;30.69;28.69;35.71;;
73638;Laerm;53743;51.100;5.874;2023-08-21T01:18:15;35.26;28.99;43.29;;
73638;Laerm;53743;51.100;5.874;2023-08-21T01:19:30;31.02;29.08;46.28;;
73638;Laerm;53743;51.100;5.874;2023-08-21T01:20:33;30.64;29.14;33.07;;
73638;Laerm;53743;51.100;5.874;2023-08-21T01:21:35;30.95;28.82;34.92;;
73638;Laerm;53743;51.100;5.874;2023-08-21T01:22:39;30.74;28.43;35.91;;
73638;Laerm;53743;51.100;5.874;2023-08-21T01:23:42;30.88;28.93;35.80;;
73638;Laerm;53743;51.100;5.874;2023-08-21T01:24:44;31.19;29.33;36.86;;
73638;Laerm;53743;51.100;5.874;2023-08-21T01:25:46;52.90;29.57;67.52;;
73638;Laerm;53743;51.100;5.874;2023-08-21T01:26:47;55.96;29.96;71.98;;
73638;Laerm;53743;51.100;5.874;2023-08-21T01:27:51;31.01;28.99;36.42;;
73638;Laerm;53743;51.100;5.874;2023-08-21T01:28:52;30.74;28.97;33.43;;
73638;Laerm;53743;51.100;5.874;2023-08-21T01:29:55;59.46;29.04;76.65;;
73638;Laerm;53743;51.100;5.874;2023-08-21T01:31:05;30.97;28.59;35.46;;
73638;Laerm;53743;51.100;5.874;2023-08-21T01:32:21;30.62;28.83;37.67;;
73638;Laerm;53743;51.100;5.874;2023-08-21T01:33:29;30.90;29.27;35.16;;
73638;Laerm;53743;51.100;5.874;2023-08-21T01:34:35;31.57;29.41;35.22;;
73638;Laerm;53743;51.100;5.874;2023-08-21T01:35:38;31.97;29.22;38.62;;
73638;Laerm;53743;51.100;5.874;2023-08-21T01:36:42;31.89;29.80;37.31;;
73638;Laerm;53743;51.100;5.874;2023-08-21T01:37:44;32.07;29.56;39.29;;
73638;Laerm;53743;51.100;5.874;2023-08-21T01:38:48;31.89;29.52;45.96;;
73638;Laerm;53743;51.100;5.874;2023-08-21T01:39:50;32.03;29.92;37.49;;
73638;Laerm;53743;51.100;5.874;2023-08-21T01:40:53;31.57;29.28;41.33;;
73638;Laerm;53743;51.100;5.874;2023-08-21T01:41:54;31.38;29.42;35.15;;
73638;Laerm;53743;51.100;5.874;2023-08-21T01:42:57;31.07;28.45;34.89;;
73638;Laerm;53743;51.100;5.874;2023-08-21T01:43:58;31.11;29.22;33.20;;
73638;Laerm;53743;51.100;5.874;2023-08-21T01:45:01;31.45;29.31;34.82;;
73638;Laerm;53743;51.100;5.874;2023-08-21T01:46:03;31.40;29.46;34.14;;
73638;Laerm;53743;51.100;5.874;2023-08-21T01:47:06;30.47;28.45;32.63;;
73638;Laerm;53743;51.100;5.874;2023-08-21T01:48:08;31.36;28.49;34.79;;
73638;Laerm;53743;51.100;5.874;2023-08-21T01:49:10;31.87;29.80;34.84;;
73638;Laerm;53743;51.100;5.874;2023-08-21T01:50:11;31.74;29.69;36.02;;
73638;Laerm;53743;51.100;5.874;2023-08-21T01:51:14;31.41;29.59;35.69;;
73638;Laerm;53743;51.100;5.874;2023-08-21T01:52:15;31.55;29.70;33.82;;
73638;Laerm;53743;51.100;5.874;2023-08-21T01:53:17;31.66;29.64;34.37;;
73638;Laerm;53743;51.100;5.874;2023-08-21T01:54:20;30.86;28.72;33.21;;
73638;Laerm;53743;51.100;5.874;2023-08-21T01:55:22;31.27;29.12;49.38;;
73638;Laerm;53743;51.100;5.874;2023-08-21T01:56:24;32.92;29.65;56.67;;
73638;Laerm;53743;51.100;5.874;2023-08-21T01:57:26;32.27;30.16;34.88;;
73638;Laerm;53743;51.100;5.874;2023-08-21T01:58:27;37.97;29.23;52.20;;
73638;Laerm;53743;51.100;5.874;2023-08-21T01:59:29;56.89;29.05;73.73;;
73638;Laerm;53743;51.100;5.874;2023-08-21T02:00:31;33.49;29.46;44.11;;
73638;Laerm;53743;51.100;5.874;2023-08-21T02:01:33;32.73;30.35;36.54;;
73638;Laerm;53743;51.100;5.874;2023-08-21T02:02:34;32.80;30.62;35.85;;
73638;Laerm;53743;51.100;5.874;2023-08-21T02:03:36;32.05;29.91;35.26;;
73638;Laerm;53743;51.100;5.874;2023-08-21T02:04:37;32.48;30.19;41.49;;
73638;Laerm;53743;51.100;5.874;2023-08-21T02:05:40;41.17;31.59;56.99;;
73638;Laerm;53743;51.100;5.874;2023-08-21T02:06:42;52.37;31.18;68.52;;
73638;Laerm;53743;51.100;5.874;2023-08-21T02:07:44;33.81;31.08;39.98;;
73638;Laerm;53743;51.100;5.874;2023-08-21T02:08:48;33.60;30.81;37.81;;
73638;Laerm;53743;51.100;5.874;2023-08-21T02:09:53;34.08;31.06;39.00;;
73638;Laerm;53743;51.100;5.874;2023-08-21T02:10:55;53.78;30.81;68.92;;
73638;Laerm;53743;51.100;5.874;2023-08-21T02:11:56;48.75;30.76;65.09;;
73638;Laerm;53743;51.100;5.874;2023-08-21T02:12:58;59.13;30.54;74.43;;
73638;Laerm;53743;51.100;5.874;2023-08-21T02:13:59;32.47;29.73;38.41;;
73638;Laerm;53743;51.100;5.874;2023-08-21T02:15:02;33.46;30.79;38.71;;
73638;Laerm;53743;51.100;5.874;2023-08-21T02:16:07;32.99;30.40;36.73;;
73638;Laerm;53743;51.100;5.874;2023-08-21T02:17:09;32.23;29.98;37.15;;
73638;Laerm;53743;51.100;5.874;2023-08-21T02:18:11;31.74;29.30;36.72;;
73638;Laerm;53743;51.100;5.874;2023-08-21T02:19:14;52.72;30.06;68.82;;
73638;Laerm;53743;51.100;5.874;2023-08-21T02:20:15;54.58;30.04;71.85;;
73638;Laerm;53743;51.100;5.874;2023-08-21T02:21:17;31.80;30.08;34.13;;
73638;Laerm;53743;51.100;5.874;2023-08-21T02:22:18;31.43;28.83;35.96;;
73638;Laerm;53743;51.100;5.874;2023-08-21T02:23:20;30.83;29.12;42.78;;
73638;Laerm;53743;51.100;5.874;2023-08-21T02:24:21;31.74;29.14;36.53;;
73638;Laerm;53743;51.100;5.874;2023-08-21T02:25:25;54.52;30.84;70.13;;
73638;Laerm;53743;51.100;5.874;2023-08-21T02:26:26;32.11;29.54;34.35;;
73638;Laerm;53743;51.100;5.874;2023-08-21T02:27:28;31.13;29.24;35.42;;
73638;Laerm;53743;51.100;5.874;2023-08-21T02:28:29;31.33;28.97;40.73;;
73638;Laerm;53743;51.100;5.874;2023-08-21T02:29:31;31.44;29.53;37.81;;
73638;Laerm;53743;51.100;5.874;2023-08-21T02:30:32;31.49;29.23;37.93;;
73638;Laerm;53743;51.100;5.874;2023-08-21T02:31:34;31.64;29.75;37.60;;
73638;Laerm;53743;51.100;5.874;2023-08-21T02:32:35;31.76;29.82;41.35;;
73638;Laerm;53743;51.100;5.874;2023-08-21T02:33:39;51.99;29.46;66.86;;
73638;Laerm;53743;51.100;5.874;2023-08-21T02:34:40;32.40;29.83;35.11;;
73638;Laerm;53743;51.100;5.874;2023-08-21T02:35:42;32.26;30.29;35.21;;
73638;Laerm;53743;51.100;5.874;2023-08-21T02:36:43;52.67;31.56;66.68;;
73638;Laerm;53743;51.100;5.874;2023-08-21T02:37:45;54.38;31.27;70.13;;
73638;Laerm;53743;51.100;5.874;2023-08-21T02:38:46;33.32;30.45;36.83;;
73638;Laerm;53743;51.100;5.874;2023-08-21T02:39:48;32.27;30.24;34.93;;
73638;Laerm;53743;51.100;5.874;2023-08-21T02:40:50;32.86;30.40;35.53;;
73638;Laerm;53743;51.100;5.874;2023-08-21T02:41:52;53.14;31.14;72.07;;
73638;Laerm;53743;51.100;5.874;2023-08-21T02:42:53;55.39;29.97;74.13;;
73638;Laerm;53743;51.100;5.874;2023-08-21T02:43:56;32.57;30.17;40.14;;
73638;Laerm;53743;51.100;5.874;2023-08-21T02:44:57;31.85;29.98;34.22;;
73638;Laerm;53743;51.100;5.874;2023-08-21T02:45:59;32.32;29.80;36.23;;
73638;Laerm;53743;51.100;5.874;2023-08-21T02:47:00;31.46;29.39;33.51;;
73638;Laerm;53743;51.100;5.874;2023-08-21T02:48:03;31.60;29.39;34.24;;
73638;Laerm;53743;51.100;5.874;2023-08-21T02:49:04;32.87;29.55;39.62;;
73638;Laerm;53743;51.100;5.874;2023-08-21T02:50:09;56.46;32.78;70.16;;
73638;Laerm;53743;51.100;5.874;2023-08-21T02:51:10;34.27;30.58;41.18;;
73638;Laerm;53743;51.100;5.874;2023-08-21T02:52:12;31.88;30.00;35.92;;
73638;Laerm;53743;51.100;5.874;2023-08-21T02:53:13;31.94;30.03;33.90;;
73638;Laerm;53743;51.100;5.874;2023-08-21T02:54:15;53.07;30.53;68.85;;
73638;Laerm;53743;51.100;5.874;2023-08-21T02:55:16;34.53;31.42;44.48;;
73638;Laerm;53743;51.100;5.874;2023-08-21T02:56:21;57.06;31.34;73.84;;
73638;Laerm;53743;51.100;5.874;2023-08-21T02:57:23;41.45;31.11;55.46;;
73638;Laerm;53743;51.100;5.874;2023-08-21T02:58:25;60.09;35.17;73.64;;
73638;Laerm;53743;51.100;5.874;2023-08-21T02:59:26;46.12;33.44;54.59;;
73638;Laerm;53743;51.100;5.874;2023-08-21T03:00:28;32.78;30.11;39.63;;
73638;Laerm;53743;51.100;5.874;2023-08-21T03:01:29;58.35;30.29;72.79;;
73638;Laerm;53743;51.100;5.874;2023-08-21T03:02:31;43.47;30.52;57.69;;
73638;Laerm;53743;51.100;5.874;2023-08-21T03:03:33;54.43;32.12;68.57;;
73638;Laerm;53743;51.100;5.874;2023-08-21T03:04:36;58.13;31.89;75.28;;
73638;Laerm;53743;51.100;5.874;2023-08-21T03:05:37;33.05;30.84;38.37;;
73638;Laerm;53743;51.100;5.874;2023-08-21T03:06:39;32.40;30.47;35.42;;
73638;Laerm;53743;51.100;5.874;2023-08-21T03:07:40;32.91;30.50;36.26;;
73638;Laerm;53743;51.100;5.874;2023-08-21T03:08:42;32.92;29.79;36.51;;
73638;Laerm;53743;51.100;5.874;2023-08-21T03:09:46;34.49;31.10;37.13;;
73638;Laerm;53743;51.100;5.874;2023-08-21T03:10:48;33.14;31.03;36.33;;
73638;Laerm;53743;51.100;5.874;2023-08-21T03:11:51;32.85;30.41;36.42;;
73638;Laerm;53743;51.100;5.874;2023-08-21T03:12:53;33.17;30.45;37.26;;
73638;Laerm;53743;51.100;5.874;2023-08-21T03:13:54;33.80;31.20;37.44;;
73638;Laerm;53743;51.100;5.874;2023-08-21T03:14:56;34.00;31.04;36.87;;
73638;Laerm;53743;51.100;5.874;2023-08-21T03:15:58;55.36;32.63;70.15;;
73638;Laerm;53743;51.100;5.874;2023-08-21T03:17:01;34.62;32.20;37.57;;
73638;Laerm;53743;51.100;5.874;2023-08-21T03:18:03;34.95;32.37;46.77;;
73638;Laerm;53743;51.100;5.874;2023-08-21T03:19:06;34.16;31.83;36.78;;
73638;Laerm;53743;51.100;5.874;2023-08-21T03:20:08;58.51;32.99;73.61;;
73638;Laerm;53743;51.100;5.874;2023-08-21T03:21:11;54.69;31.69;69.78;;
73638;Laerm;53743;51.100;5.874;2023-08-21T03:22:12;56.39;32.13;74.82;;
73638;Laerm;53743;51.100;5.874;2023-08-21T03:23:14;58.47;33.69;73.39;;
73638;Laerm;53743;51.100;5.874;2023-08-21T03:24:15;36.79;33.59;42.36;;
73638;Laerm;53743;51.100;5.874;2023-08-21T03:25:18;35.61;32.53;39.47;;
73638;Laerm;53743;51.100;5.874;2023-08-21T03:26:19;57.12;32.34;72.62;;
73638;Laerm;53743;51.100;5.874;2023-08-21T03:27:22;35.84;33.24;38.46;;
73638;Laerm;53743;51.100;5.874;2023-08-21T03:28:23;53.72;32.80;67.98;;
73638;Laerm;53743;51.100;5.874;2023-08-21T03:29:25;56.44;34.10;68.36;;
73638;Laerm;53743;51.100;5.874;2023-08-21T03:30:27;53.36;36.00;68.51;;
73638;Laerm;53743;51.100;5.874;2023-08-21T03:31:29;54.63;32.44;69.80;;
73638;Laerm;53743;51.100;5.874;2023-08-21T03:32:32;35.97;32.83;40.12;;
73638;Laerm;53743;51.100;5.874;2023-08-21T03:33:34;35.27;32.11;37.94;;
73638;Laerm;53743;51.100;5.874;2023-08-21T03:34:35;34.37;31.57;37.15;;
73638;Laerm;53743;51.100;5.874;2023-08-21T03:35:37;35.69;31.91;41.11;;
73638;Laerm;53743;51.100;5.874;2023-08-21T03:36:38;34.74;32.03;38.32;;
73638;Laerm;53743;51.100;5.874;2023-08-21T03:37:41;33.32;31.16;35.92;;
73638;Laerm;53743;51.100;5.874;2023-08-21T03:38:44;58.46;32.38;72.23;;
73638;Laerm;53743;51.100;5.874;2023-08-21T03:39:46;57.84;33.24;72.43;;
73638;Laerm;53743;51.100;5.874;2023-08-21T03:40:47;53.22;31.71;68.18;;
73638;Laerm;53743;51.100;5.874;2023-08-21T03:41:51;58.62;31.96;75.34;;
73638;Laerm;53743;51.100;5.874;2023-08-21T03:42:54;59.41;32.62;75.38;;
73638;Laerm;53743;51.100;5.874;2023-08-21T03:43:56;56.40;33.15;70.41;;
73638;Laerm;53743;51.100;5.874;2023-08-21T03:44:57;34.19;31.42;42.05;;
73638;Laerm;53743;51.100;5.874;2023-08-21T03:45:59;59.51;36.70;73.10;;
73638;Laerm;53743;51.100;5.874;2023-08-21T03:47:00;45.97;32.25;61.52;;
73638;Laerm;53743;51.100;5.874;2023-08-21T03:48:07;34.53;31.47;48.70;;
73638;Laerm;53743;51.100;5.874;2023-08-21T03:49:08;53.68;32.41;69.18;;
73638;Laerm;53743;51.100;5.874;2023-08-21T03:50:10;35.06;32.28;37.84;;
73638;Laerm;53743;51.100;5.874;2023-08-21T03:51:11;34.76;32.20;37.35;;
73638;Laerm;53743;51.100;5.874;2023-08-21T03:52:14;34.67;32.04;37.60;;
73638;Laerm;53743;51.100;5.874;2023-08-21T03:53:16;35.26;32.24;41.83;;
73638;Laerm;53743;51.100;5.874;2023-08-21T03:54:18;34.25;32.10;37.54;;
73638;Laerm;53743;51.100;5.874;2023-08-21T03:55:19;34.57;32.29;37.01;;
73638;Laerm;53743;51.100;5.874;2023-08-21T03:56:21;38.14;31.45;52.88;;
73638;Laerm;53743;51.100;5.874;2023-08-21T03:57:24;53.69;31.66;69.41;;
73638;Laerm;53743;51.100;5.874;2023-08-21T03:58:27;34.08;31.43;36.33;;
73638;Laerm;53743;51.100;5.874;2023-08-21T03:59:28;34.45;31.38;37.40;;
73638;Laerm;53743;51.100;5.874;2023-08-21T04:00:30;34.65;32.06;40.61;;
73638;Laerm;53743;51.100;5.874;2023-08-21T04:01:31;34.72;32.26;38.54;;
73638;Laerm;53743;51.100;5.874;2023-08-21T04:02:33;34.06;32.07;39.89;;
73638;Laerm;53743;51.100;5.874;2023-08-21T04:03:34;33.78;31.43;35.90;;
73638;Laerm;53743;51.100;5.874;2023-08-21T04:04:37;56.52;32.07;71.17;;
73638;Laerm;53743;51.100;5.874;2023-08-21T04:05:38;63.35;40.15;74.58;;
73638;Laerm;53743;51.100;5.874;2023-08-21T04:06:40;58.33;33.16;70.93;;
73638;Laerm;53743;51.100;5.874;2023-08-21T04:07:41;34.89;32.40;38.00;;
73638;Laerm;53743;51.100;5.874;2023-08-21T04:08:43;57.45;32.74;72.77;;
73638;Laerm;53743;51.100;5.874;2023-08-21T04:09:45;61.61;39.26;74.14;;
73638;Laerm;53743;51.100;5.874;2023-08-21T04:10:47;36.79;33.18;41.62;;
73638;Laerm;53743;51.100;5.874;2023-08-21T04:11:48;58.35;35.33;75.00;;
73638;Laerm;53743;51.100;5.874;2023-08-21T04:12:50;53.84;34.66;70.28;;
73638;Laerm;53743;51.100;5.874;2023-08-21T04:13:54;37.66;33.73;42.46;;
73638;Laerm;53743;51.100;5.874;2023-08-21T04:14:56;56.39;33.16;71.71;;
73638;Laerm;53743;51.100;5.874;2023-08-21T04:15:58;36.41;33.61;42.12;;
73638;Laerm;53743;51.100;5.874;2023-08-21T04:17:01;56.72;33.69;72.58;;
73638;Laerm;53743;51.100;5.874;2023-08-21T04:18:02;57.55;34.08;73.60;;
73638;Laerm;53743;51.100;5.874;2023-08-21T04:19:05;38.11;33.72;43.31;;
73638;Laerm;53743;51.100;5.874;2023-08-21T04:20:08;59.43;34.97;71.32;;
73638;Laerm;53743;51.100;5.874;2023-08-21T04:21:10;49.73;36.28;64.18;;
73638;Laerm;53743;51.100;5.874;2023-08-21T04:22:11;61.98;36.59;73.44;;
73638;Laerm;53743;51.100;5.874;2023-08-21T04:23:13;51.23;35.76;68.35;;
73638;Laerm;53743;51.100;5.874;2023-08-21T04:24:14;58.10;34.84;73.63;;
73638;Laerm;53743;51.100;5.874;2023-08-21T04:25:16;57.51;35.38;70.70;;
73638;Laerm;53743;51.100;5.874;2023-08-21T04:26:17;56.02;36.32;71.64;;
73638;Laerm;53743;51.100;5.874;2023-08-21T04:27:20;61.32;38.45;71.70;;
73638;Laerm;53743;51.100;5.874;2023-08-21T04:28:21;53.52;36.79;68.77;;
73638;Laerm;53743;51.100;5.874;2023-08-21T04:29:24;37.75;34.89;42.32;;
73638;Laerm;53743;51.100;5.874;2023-08-21T04:30:25;51.84;35.02;66.80;;
73638;Laerm;53743;51.100;5.874;2023-08-21T04:31:27;54.87;36.32;72.01;;
73638;Laerm;53743;51.100;5.874;2023-08-21T04:32:28;54.14;35.33;68.39;;
73638;Laerm;53743;51.100;5.874;2023-08-21T04:33:32;60.92;35.75;77.58;;
73638;Laerm;53743;51.100;5.874;2023-08-21T04:34:34;62.41;38.18;76.88;;
73638;Laerm;53743;51.100;5.874;2023-08-21T04:35:38;59.78;40.20;72.04;;
73638;Laerm;53743;51.100;5.874;2023-08-21T04:36:40;52.82;35.33;67.58;;
73638;Laerm;53743;51.100;5.874;2023-08-21T04:37:47;58.78;36.85;69.40;;
73638;Laerm;53743;51.100;5.874;2023-08-21T04:38:49;61.76;37.15;72.94;;
73638;Laerm;53743;51.100;5.874;2023-08-21T04:39:52;59.33;36.10;75.11;;
73638;Laerm;53743;51.100;5.874;2023-08-21T04:40:53;60.07;36.48;74.33;;
73638;Laerm;53743;51.100;5.874;2023-08-21T04:41:56;61.18;38.56;72.60;;
73638;Laerm;53743;51.100;5.874;2023-08-21T04:42:57;61.07;38.75;72.77;;
73638;Laerm;53743;51.100;5.874;2023-08-21T04:43:59;50.32;35.55;67.47;;
73638;Laerm;53743;51.100;5.874;2023-08-21T04:45:03;62.30;38.25;73.97;;
73638;Laerm;53743;51.100;5.874;2023-08-21T04:46:08;59.27;39.72;72.70;;
73638;Laerm;53743;51.100;5.874;2023-08-21T04:47:21;62.84;37.16;75.41;;
73638;Laerm;53743;51.100;5.874;2023-08-21T04:48:25;58.87;34.57;72.65;;
73638;Laerm;53743;51.100;5.874;2023-08-21T04:49:26;59.73;40.73;72.01;;
73638;Laerm;53743;51.100;5.874;2023-08-21T04:50:28;61.06;34.86;72.88;;
73638;Laerm;53743;51.100;5.874;2023-08-21T04:51:29;39.11;35.31;52.78;;
73638;Laerm;53743;51.100;5.874;2023-08-21T04:52:34;59.50;37.77;71.10;;
73638;Laerm;53743;51.100;5.874;2023-08-21T04:53:35;63.48;40.72;72.07;;
73638;Laerm;53743;51.100;5.874;2023-08-21T04:54:37;59.13;36.67;71.71;;
73638;Laerm;53743;51.100;5.874;2023-08-21T04:55:39;55.23;36.44;69.47;;
73638;Laerm;53743;51.100;5.874;2023-08-21T04:56:42;56.60;37.12;69.74;;
73638;Laerm;53743;51.100;5.874;2023-08-21T04:57:45;61.19;36.18;73.08;;
73638;Laerm;53743;51.100;5.874;2023-08-21T04:58:47;60.30;37.57;71.25;;
73638;Laerm;53743;51.100;5.874;2023-08-21T04:59:49;56.62;35.72;69.08;;
73638;Laerm;53743;51.100;5.874;2023-08-21T05:00:54;61.65;36.70;73.57;;
73638;Laerm;53743;51.100;5.874;2023-08-21T05:01:55;57.51;35.59;72.79;;
73638;Laerm;53743;51.100;5.874;2023-08-21T05:02:57;56.58;37.95;70.98;;
73638;Laerm;53743;51.100;5.874;2023-08-21T05:03:58;59.01;38.41;70.69;;
73638;Laerm;53743;51.100;5.874;2023-08-21T05:05:00;60.00;36.14;73.68;;
73638;Laerm;53743;51.100;5.874;2023-08-21T05:06:02;62.21;36.03;71.83;;
73638;Laerm;53743;51.100;5.874;2023-08-21T05:07:05;62.43;43.29;74.17;;
73638;Laerm;53743;51.100;5.874;2023-08-21T05:08:06;57.22;37.01;72.45;;
73638;Laerm;53743;51.100;5.874;2023-08-21T05:09:08;58.52;37.11;69.94;;
73638;Laerm;53743;51.100;5.874;2023-08-21T05:10:10;54.20;37.93;66.83;;
73638;Laerm;53743;51.100;5.874;2023-08-21T05:11:13;61.60;39.72;72.97;;
73638;Laerm;53743;51.100;5.874;2023-08-21T05:12:17;59.44;39.66;71.56;;
73638;Laerm;53743;51.100;5.874;2023-08-21T05:13:18;58.76;36.70;72.93;;
73638;Laerm;53743;51.100;5.874;2023-08-21T05:14:20;60.82;36.31;73.20;;
73638;Laerm;53743;51.100;5.874;2023-08-21T05:15:21;63.27;38.59;74.24;;
73638;Laerm;53743;51.100;5.874;2023-08-21T05:16:24;60.85;35.68;73.85;;
73638;Laerm;53743;51.100;5.874;2023-08-21T05:17:25;66.35;45.21;76.15;;
73638;Laerm;53743;51.100;5.874;2023-08-21T05:18:28;60.18;39.34;72.29;;
73638;Laerm;53743;51.100;5.874;2023-08-21T05:19:29;63.26;49.00;73.87;;
73638;Laerm;53743;51.100;5.874;2023-08-21T05:20:31;64.23;39.84;78.69;;
73638;Laerm;53743;51.100;5.874;2023-08-21T05:21:32;64.96;46.63;73.22;;
73638;Laerm;53743;51.100;5.874;2023-08-21T05:22:34;63.70;43.79;74.79;;
73638;Laerm;53743;51.100;5.874;2023-08-21T05:23:35;63.02;42.37;73.81;;
73638;Laerm;53743;51.100;5.874;2023-08-21T05:24:41;57.93;36.62;70.73;;
73638;Laerm;53743;51.100;5.874;2023-08-21T05:25:43;61.26;36.16;74.40;;
73638;Laerm;53743;51.100;5.874;2023-08-21T05:26:45;65.78;46.59;76.69;;
73638;Laerm;53743;51.100;5.874;2023-08-21T05:27:46;55.48;37.83;69.05;;
73638;Laerm;53743;51.100;5.874;2023-08-21T05:28:47;60.78;41.38;73.01;;
73638;Laerm;53743;51.100;5.874;2023-08-21T05:29:49;62.56;38.18;74.56;;
73638;Laerm;53743;51.100;5.874;2023-08-21T05:30:52;61.43;35.87;72.72;;
73638;Laerm;53743;51.100;5.874;2023-08-21T05:31:56;60.70;38.77;69.58;;
73638;Laerm;53743;51.100;5.874;2023-08-21T05:32:57;63.61;41.46;77.10;;
73638;Laerm;53743;51.100;5.874;2023-08-21T05:33:59;60.31;37.77;73.41;;
73638;Laerm;53743;51.100;5.874;2023-08-21T05:35:01;61.17;35.85;73.16;;
73638;Laerm;53743;51.100;5.874;2023-08-21T05:36:06;46.21;34.53;63.63;;
73638;Laerm;53743;51.100;5.874;2023-08-21T05:37:07;63.43;46.69;72.94;;
73638;Laerm;53743;51.100;5.874;2023-08-21T05:38:09;62.29;37.79;74.57;;
73638;Laerm;53743;51.100;5.874;2023-08-21T05:39:11;62.74;40.78;77.42;;
73638;Laerm;53743;51.100;5.874;2023-08-21T05:40:14;59.08;36.25;71.57;;
73638;Laerm;53743;51.100;5.874;2023-08-21T05:41:15;61.88;37.25;72.26;;
73638;Laerm;53743;51.100;5.874;2023-08-21T05:42:17;62.07;35.40;73.63;;
73638;Laerm;53743;51.100;5.874;2023-08-21T05:43:19;61.30;36.00;71.94;;
73638;Laerm;53743;51.100;5.874;2023-08-21T05:44:20;62.36;37.15;72.30;;
73638;Laerm;53743;51.100;5.874;2023-08-21T05:45:22;62.48;38.06;72.67;;
73638;Laerm;53743;51.100;5.874;2023-08-21T05:46:23;63.18;35.67;71.36;;
73638;Laerm;53743;51.100;5.874;2023-08-21T05:47:27;62.85;34.11;74.49;;
73638;Laerm;53743;51.100;5.874;2023-08-21T05:48:28;60.67;38.27;72.81;;
73638;Laerm;53743;51.100;5.874;2023-08-21T05:49:30;60.67;38.28;72.94;;
73638;Laerm;53743;51.100;5.874;2023-08-21T05:50:31;64.19;36.52;74.95;;